sensor_id;sensor_type;location;lat;lon;timestamp;temperature;humidity
43842;DHT22;29495;49.970;20.842;2023-07-16T21:34:59;24.50;99.90
43842;DHT22;29495;49.970;20.842;2023-07-16T21:37:25;24.30;99.90
43842;DHT22;29495;49.970;20.842;2023-07-16T21:39:51;24.20;99.90
43842;DHT22;29495;49.970;20.842;2023-07-16T21:42:17;24.10;99.90
43842;DHT22;29495;49.970;20.842;2023-07-16T21:44:42;24.20;99.90
43842;DHT22;29495;49.970;20.842;2023-07-16T21:47:08;24.10;99.90
43842;DHT22;29495;49.970;20.842;2023-07-16T21:49:35;24.10;99.90
43842;DHT22;29495;49.970;20.842;2023-07-16T21:52:01;24.10;99.90
43842;DHT22;29495;49.970;20.842;2023-07-16T21:54:32;24.00;99.90
43842;DHT22;29495;49.970;20.842;2023-07-16T21:56:57;23.90;99.90
43842;DHT22;29495;49.970;20.842;2023-07-16T21:59:23;23.90;99.90
43842;DHT22;29495;49.970;20.842;2023-07-16T22:01:49;23.80;99.90
43842;DHT22;29495;49.970;20.842;2023-07-16T22:04:15;23.70;99.90
43842;DHT22;29495;49.970;20.842;2023-07-16T22:06:41;23.60;99.90
43842;DHT22;29495;49.970;20.842;2023-07-16T22:09:06;23.60;99.90
43842;DHT22;29495;49.970;20.842;2023-07-16T22:11:35;23.80;99.90
43842;DHT22;29495;49.970;20.842;2023-07-16T22:14:05;23.90;99.90
43842;DHT22;29495;49.970;20.842;2023-07-16T22:16:31;24.00;99.90
43842;DHT22;29495;49.970;20.842;2023-07-16T22:18:57;23.90;99.90
43842;DHT22;29495;49.970;20.842;2023-07-16T22:21:22;23.90;99.90
43842;DHT22;29495;49.970;20.842;2023-07-16T22:23:48;23.90;99.90
43842;DHT22;29495;49.970;20.842;2023-07-16T22:26:15;24.00;99.90
43842;DHT22;29495;49.970;20.842;2023-07-16T22:28:41;23.60;99.90
43842;DHT22;29495;49.970;20.842;2023-07-16T22:31:07;23.60;99.90
43842;DHT22;29495;49.970;20.842;2023-07-16T22:33:33;23.60;99.90
43842;DHT22;29495;49.970;20.842;2023-07-16T22:36:01;23.80;99.90
43842;DHT22;29495;49.970;20.842;2023-07-16T22:38:28;23.50;99.90
43842;DHT22;29495;49.970;20.842;2023-07-16T22:46:47;23.00;99.90
43842;DHT22;29495;49.970;20.842;2023-07-16T22:49:16;23.00;99.90
43842;DHT22;29495;49.970;20.842;2023-07-16T22:51:41;22.90;99.90
43842;DHT22;29495;49.970;20.842;2023-07-16T22:54:10;23.00;99.90
43842;DHT22;29495;49.970;20.842;2023-07-16T22:56:36;23.00;99.90
43842;DHT22;29495;49.970;20.842;2023-07-16T22:59:03;23.00;99.90
43842;DHT22;29495;49.970;20.842;2023-07-16T23:01:29;23.00;99.90
43842;DHT22;29495;49.970;20.842;2023-07-16T23:03:55;23.20;99.90
43842;DHT22;29495;49.970;20.842;2023-07-16T23:06:21;23.10;99.90
43842;DHT22;29495;49.970;20.842;2023-07-16T23:08:46;23.10;99.90
43842;DHT22;29495;49.970;20.842;2023-07-16T23:11:12;23.20;99.90
43842;DHT22;29495;49.970;20.842;2023-07-16T23:13:38;23.40;99.90
43842;DHT22;29495;49.970;20.842;2023-07-16T23:16:04;23.30;99.90
43842;DHT22;29495;49.970;20.842;2023-07-16T23:18:30;23.10;99.90
43842;DHT22;29495;49.970;20.842;2023-07-16T23:20:56;23.10;99.90
43842;DHT22;29495;49.970;20.842;2023-07-16T23:23:22;22.80;99.90
43842;DHT22;29495;49.970;20.842;2023-07-16T23:25:49;22.80;99.90
43842;DHT22;29495;49.970;20.842;2023-07-16T23:28:15;23.00;99.90
43842;DHT22;29495;49.970;20.842;2023-07-16T23:30:41;23.00;99.90
43842;DHT22;29495;49.970;20.842;2023-07-16T23:33:06;23.10;99.90
43842;DHT22;29495;49.970;20.842;2023-07-16T23:35:32;23.00;99.90
43842;DHT22;29495;49.970;20.842;2023-07-16T23:37:59;23.10;99.90
43842;DHT22;29495;49.970;20.842;2023-07-16T23:40:25;23.00;99.90
43842;DHT22;29495;49.970;20.842;2023-07-16T23:42:51;23.00;99.90
43842;DHT22;29495;49.970;20.842;2023-07-16T23:45:17;22.80;99.90
43842;DHT22;29495;49.970;20.842;2023-07-16T23:47:43;22.60;99.90
43842;DHT22;29495;49.970;20.842;2023-07-16T23:50:09;22.40;99.90
43842;DHT22;29495;49.970;20.842;2023-07-16T23:52:35;22.30;99.90
43842;DHT22;29495;49.970;20.842;2023-07-16T23:55:01;22.30;99.90
43842;DHT22;29495;49.970;20.842;2023-07-16T23:57:28;22.30;99.90
43842;DHT22;29495;49.970;20.842;2023-07-16T23:59:54;22.30;99.90
